createdAt,value
2022-08-28T00:01:05.484Z,99733.03
2022-08-28T00:03:33.939Z,99706.84
2022-08-28T00:06:02.869Z,99721.63
2022-08-28T00:08:33.360Z,99716.69
2022-08-28T00:11:02.051Z,99719.66
2022-08-28T00:13:30.558Z,99722.56
2022-08-28T00:16:02.168Z,99721.38
2022-08-28T00:18:31.492Z,99730.53
2022-08-28T00:21:01.022Z,99730.97
2022-08-28T00:23:35.223Z,99735.66
2022-08-28T00:26:34.048Z,99737.16
2022-08-28T00:29:01.572Z,99744.06
2022-08-28T00:31:30.034Z,99745.59
2022-08-28T00:34:02.867Z,99745.44
2022-08-28T00:36:31.379Z,99738.88
2022-08-28T00:39:00.614Z,99739.34
2022-08-28T00:41:31.702Z,99739.78
2022-08-28T00:44:13.574Z,99732.59
2022-08-28T00:46:44.646Z,99735.28
2022-08-28T00:49:15.059Z,99733.44
2022-08-28T00:52:00.894Z,99731.53
2022-08-28T00:54:30.214Z,99730.75
2022-08-28T00:57:01.784Z,99732.38
2022-08-28T00:59:30.158Z,99715.38
2022-08-28T01:02:10.012Z,99720.56
2022-08-28T01:04:40.166Z,99728.84
2022-08-28T01:07:13.120Z,99732.59
2022-08-28T01:09:44.688Z,99728.72
2022-08-28T01:12:17.845Z,99731.66
2022-08-28T01:14:48.290Z,99724.84
2022-08-28T01:17:18.525Z,99729.63
2022-08-28T01:19:55.743Z,99737.13
2022-08-28T01:22:32.140Z,99733.03
2022-08-28T01:25:05.112Z,99730.31
2022-08-28T01:27:33.568Z,99723.50
2022-08-28T01:30:02.001Z,99719.63
2022-08-28T01:32:35.639Z,99722.69
2022-08-28T01:35:05.050Z,99720.22
2022-08-28T01:37:33.724Z,99731.44
2022-08-28T01:40:04.012Z,99724.22
2022-08-28T01:42:32.472Z,99712.38
2022-08-28T01:45:00.894Z,99715.75
2022-08-28T01:47:29.293Z,99714.25
2022-08-28T01:49:57.819Z,99714.69
2022-08-28T01:52:26.653Z,99712.84
2022-08-28T01:54:55.091Z,99706.88
2022-08-28T01:57:27.460Z,99707.06
2022-08-28T01:59:56.129Z,99712.25
2022-08-28T02:02:25.048Z,99708.72
2022-08-28T02:04:54.086Z,99702.75
2022-08-28T02:07:22.436Z,99709.75
2022-08-28T02:09:51.214Z,99706.47
2022-08-28T02:12:20.928Z,99716.66
2022-08-28T02:14:50.731Z,99716.06
2022-08-28T02:17:19.166Z,99713.97
2022-08-28T02:19:47.529Z,99717.69
2022-08-28T02:22:15.942Z,99720.41
2022-08-28T02:24:44.319Z,99727.22
2022-08-28T02:27:12.770Z,99728.84
2022-08-28T02:29:41.214Z,99730.50
2022-08-28T02:32:11.047Z,99724.88
2022-08-28T02:34:40.524Z,99721.38
2022-08-28T02:37:10.310Z,99716.34
2022-08-28T02:39:39.176Z,99720.69
2022-08-28T02:42:08.127Z,99702.88
2022-08-28T02:44:36.974Z,99708.84
2022-08-28T02:47:06.773Z,99711.53
2022-08-28T02:49:36.715Z,99711.53
2022-08-28T02:52:06.968Z,99710.75
2022-08-28T02:54:38.930Z,99709.91
2022-08-28T02:57:08.417Z,99714.25
2022-08-28T02:59:36.911Z,99713.44
2022-08-28T03:02:07.324Z,99722.31
2022-08-28T03:04:38.335Z,99727.69
2022-08-28T03:07:09.554Z,99730.66
2022-08-28T03:09:40.393Z,99728.53
2022-08-28T03:12:10.848Z,99729.00
2022-08-28T03:14:39.206Z,99729.22
2022-08-28T03:17:07.853Z,99737.28
2022-08-28T03:19:37.694Z,99728.84
2022-08-28T03:22:06.274Z,99724.88
2022-08-28T03:24:34.674Z,99722.50
2022-08-28T03:27:03.164Z,99730.25
2022-08-28T03:29:32.146Z,99729.44
2022-08-28T03:32:00.770Z,99731.31
2022-08-28T03:34:29.268Z,99738.34
2022-08-28T03:36:59.619Z,99734.84
2022-08-28T03:39:28.106Z,99725.91
2022-08-28T03:41:56.576Z,99729.44
2022-08-28T03:44:25.031Z,99729.44
2022-08-28T03:46:53.417Z,99730.25
2022-08-28T03:49:22.001Z,99732.75
2022-08-28T03:51:51.522Z,99730.03
2022-08-28T03:54:21.426Z,99728.16
2022-08-28T03:56:49.909Z,99734.59
2022-08-28T03:59:18.338Z,99736.47
2022-08-28T04:01:46.803Z,99735.88
2022-08-28T04:04:15.195Z,99744.31
2022-08-28T04:06:43.669Z,99739.97
2022-08-28T04:09:12.121Z,99748.06
2022-08-28T04:11:43.159Z,99742.69
2022-08-28T04:14:11.931Z,99747.47
2022-08-28T04:16:40.399Z,99749.09
2022-08-28T04:19:08.778Z,99753.09
2022-08-28T04:21:37.325Z,99733.72
2022-08-28T04:24:09.524Z,99748.75
2022-08-28T04:26:38.270Z,99756.00
2022-08-28T04:29:08.623Z,99757.03
2022-08-28T04:31:37.745Z,99761.59
2022-08-28T04:34:08.890Z,99759.75
2022-08-28T04:36:38.582Z,99759.75
2022-08-28T04:39:09.002Z,99763.47
2022-08-28T04:41:38.944Z,99758.09
2022-08-28T04:44:09.545Z,99763.47
2022-08-28T04:46:38.798Z,99764.53
2022-08-28T04:49:07.230Z,99773.41
2022-08-28T04:51:38.904Z,99763.69
2022-08-28T04:54:11.949Z,99772.38
2022-08-28T04:56:41.878Z,99763.25
2022-08-28T04:59:11.940Z,99763.47
2022-08-28T05:01:42.885Z,99762.88
2022-08-28T05:04:12.189Z,99762.88
2022-08-28T05:06:46.506Z,99770.38
2022-08-28T05:09:16.970Z,99769.91
2022-08-28T05:11:45.809Z,99766.16
2022-08-28T05:14:17.084Z,99752.56
2022-08-28T05:16:47.796Z,99759.28
2022-08-28T05:19:17.618Z,99768.41
2022-08-28T05:21:46.301Z,99774.41
2022-08-28T05:24:14.852Z,99774.41
2022-08-28T05:26:43.708Z,99777.94
2022-08-28T05:29:18.230Z,99780.81
2022-08-28T05:31:47.943Z,99793.63
2022-08-28T05:34:16.984Z,99791.75
2022-08-28T05:36:45.435Z,99797.56
2022-08-28T05:39:14.949Z,99793.25
2022-08-28T05:41:45.608Z,99793.84
2022-08-28T05:44:15.476Z,99797.72
2022-08-28T05:46:48.349Z,99791.28
2022-08-28T05:49:18.592Z,99786.94
2022-08-28T05:51:47.742Z,99787.53
2022-08-28T05:54:17.068Z,99791.88
2022-08-28T05:56:47.338Z,99789.56
2022-08-28T05:59:17.181Z,99795.56
2022-08-28T06:01:49.104Z,99801.31
2022-08-28T06:04:19.921Z,99798.59
2022-08-28T06:06:49.645Z,99781.34
2022-08-28T06:09:26.549Z,99799.66
2022-08-28T06:11:58.945Z,99799.19
2022-08-28T06:14:28.593Z,99804.13
2022-08-28T06:16:59.947Z,99800.19
2022-08-28T06:19:29.699Z,99798.28
2022-08-28T06:22:00.515Z,99797.84
2022-08-28T06:24:30.519Z,99797.41
2022-08-28T06:26:59.743Z,99806.09
2022-08-28T06:29:29.514Z,99806.47
2022-08-28T06:32:01.613Z,99800.25
2022-08-28T06:34:30.754Z,99805.19
2022-08-28T06:36:59.543Z,99799.81
2022-08-28T06:39:27.922Z,99805.19
2022-08-28T06:41:56.403Z,99803.00
2022-08-28T06:44:24.901Z,99803.81
2022-08-28T06:46:55.845Z,99800.06
2022-08-28T06:49:25.711Z,99805.00
2022-08-28T06:51:54.108Z,99810.19
2022-08-28T06:54:23.680Z,99806.19
2022-08-28T06:56:52.524Z,99809.03
2022-08-28T06:59:21.124Z,99811.03
2022-08-28T07:01:49.752Z,99801.66
2022-08-28T07:04:18.401Z,99806.59
2022-08-28T07:06:54.843Z,99807.19
2022-08-28T07:09:24.472Z,99807.19
2022-08-28T07:11:53.412Z,99811.78
2022-08-28T07:14:21.859Z,99815.88
2022-08-28T07:16:50.634Z,99810.59
2022-08-28T07:19:20.388Z,99812.41
2022-08-28T07:21:50.327Z,99821.44
2022-08-28T07:24:19.005Z,99815.22
2022-08-28T07:26:48.610Z,99826.03
2022-08-28T07:29:17.319Z,99812.41
2022-08-28T07:31:49.715Z,99823.06
2022-08-28T07:34:20.197Z,99824.91
2022-08-28T07:36:52.142Z,99824.72
2022-08-28T07:39:20.890Z,99819.06
2022-08-28T07:41:50.580Z,99804.19
2022-08-28T07:44:36.149Z,99830.50
2022-08-28T07:47:08.847Z,99826.75
2022-08-28T07:49:37.492Z,99830.38
2022-08-28T07:52:08.813Z,99828.69
2022-08-28T07:54:40.601Z,99836.53
2022-08-28T07:57:11.063Z,99834.19
2022-08-28T07:59:43.123Z,99838.78
2022-08-28T08:02:12.043Z,99840.66
2022-08-28T08:04:40.849Z,99838.31
2022-08-28T08:07:13.085Z,99837.03
2022-08-28T08:09:43.316Z,99828.34
2022-08-28T08:12:12.787Z,99840.78
2022-08-28T08:14:42.640Z,99848.66
2022-08-28T08:17:12.346Z,99846.88
2022-08-28T08:19:41.144Z,99850.06
2022-08-28T08:22:11.140Z,99855.47
2022-08-28T08:24:39.594Z,99856.06
2022-08-28T08:27:08.241Z,99858.28
2022-08-28T08:29:39.034Z,99864.03
2022-08-28T08:32:10.509Z,99855.72
2022-08-28T08:34:41.793Z,99863.84
2022-08-28T08:37:12.922Z,99849.97
2022-08-28T08:39:42.986Z,99846.53
2022-08-28T08:42:22.492Z,99861.97
2022-08-28T08:44:52.399Z,99857.59
2022-08-28T08:47:24.426Z,99865.34
2022-08-28T08:49:56.146Z,99866.03
2022-08-28T08:52:36.531Z,99868.97
2022-08-28T08:55:20.561Z,99865.47
2022-08-28T08:57:54.898Z,99862.97
2022-08-28T09:00:23.552Z,99865.31
2022-08-28T09:03:00.794Z,99860.28
2022-08-28T09:05:50.320Z,99866.84
2022-08-28T09:08:35.634Z,99870.81
2022-08-28T09:11:16.705Z,99865.16
2022-08-28T09:13:53.788Z,99864.19
2022-08-28T09:16:31.362Z,99869.88
2022-08-28T09:19:01.136Z,99871.63
2022-08-28T09:21:32.072Z,99875.72
2022-08-28T09:24:07.294Z,99875.09
2022-08-28T09:26:40.492Z,99872.91
2022-08-28T09:29:16.918Z,99869.81
2022-08-28T09:31:45.769Z,99866.88
2022-08-28T09:34:28.770Z,99869.91
2022-08-28T09:36:58.768Z,99868.47
2022-08-28T09:39:31.034Z,99866.91
2022-08-28T09:42:35.040Z,99867.59
2022-08-28T09:45:09.172Z,99872.66
2022-08-28T09:47:48.971Z,99874.94
2022-08-28T09:50:24.577Z,99874.13
2022-08-28T09:52:55.742Z,99877.72
2022-08-28T09:55:35.022Z,99872.28
2022-08-28T09:58:04.344Z,99863.19
2022-08-28T10:00:38.322Z,99870.06
2022-08-28T10:03:15.939Z,99870.44
2022-08-28T10:05:53.123Z,99880.00
2022-08-28T10:08:32.796Z,99873.50
2022-08-28T10:11:11.706Z,99881.00
2022-08-28T10:13:48.316Z,99875.88
2022-08-28T10:16:24.908Z,99879.75
2022-08-28T10:18:59.601Z,99878.53
2022-08-28T10:21:34.818Z,99874.03
2022-08-28T10:24:28.388Z,99882.72
2022-08-28T10:27:09.734Z,99879.22
2022-08-28T10:29:50.905Z,99885.63
2022-08-28T10:32:35.798Z,99886.03
2022-08-28T10:35:12.084Z,99892.75
2022-08-28T10:37:52.435Z,99876.47
2022-08-28T10:40:27.687Z,99889.28
2022-08-28T10:43:04.447Z,99892.28
2022-08-28T10:45:34.989Z,99896.50
2022-08-28T10:48:11.621Z,99896.25
2022-08-28T10:50:45.432Z,99900.78
2022-08-28T10:53:18.396Z,99893.94
2022-08-28T10:55:55.546Z,99891.31
2022-08-28T10:58:27.685Z,99895.06
2022-08-28T11:01:01.366Z,99894.81
2022-08-28T11:03:35.058Z,99902.13
2022-08-28T11:06:10.322Z,99894.59
2022-08-28T11:08:40.942Z,99889.94
2022-08-28T11:11:15.089Z,99890.44
2022-08-28T11:13:57.509Z,99893.53
2022-08-28T11:16:37.072Z,99885.41
2022-08-28T11:19:31.176Z,99893.13
2022-08-28T11:22:09.619Z,99893.22
2022-08-28T11:25:01.776Z,99894.72
2022-08-28T11:27:34.033Z,99897.22
2022-08-28T11:30:31.474Z,99889.00
2022-08-28T11:33:30.832Z,99903.13
2022-08-28T11:35:59.252Z,99896.16
2022-08-28T11:39:13.354Z,99897.59
2022-08-28T11:42:25.469Z,99904.47
2022-08-28T11:44:53.993Z,99907.53
2022-08-28T11:47:46.086Z,99911.53
2022-08-28T11:50:20.691Z,99914.59
2022-08-28T11:53:16.114Z,99914.91
2022-08-28T11:56:14.018Z,99910.84
2022-08-28T11:59:01.006Z,99903.09
2022-08-28T12:01:37.628Z,99896.84
2022-08-28T12:04:09.722Z,99901.31
2022-08-28T12:06:54.650Z,99902.81
2022-08-28T12:09:42.736Z,99903.59
2022-08-28T12:12:30.275Z,99902.03
2022-08-28T12:15:01.141Z,99915.31
2022-08-28T12:17:46.708Z,99918.28
2022-08-28T12:20:46.082Z,99919.44
2022-08-28T12:23:38.543Z,99921.84
2022-08-28T12:26:10.916Z,99911.25
2022-08-28T12:28:46.538Z,99920.44
2022-08-28T12:32:13.981Z,99917.22
2022-08-28T12:34:50.205Z,99928.34
2022-08-28T12:37:29.078Z,99928.81
2022-08-28T12:40:03.413Z,99925.66
2022-08-28T12:42:33.894Z,99921.38
2022-08-28T12:45:05.524Z,99922.81
2022-08-28T12:47:35.980Z,99922.81
2022-08-28T12:50:21.484Z,99925.75
2022-08-28T12:52:53.635Z,99924.47
2022-08-28T12:55:24.565Z,99924.94
2022-08-28T12:57:54.025Z,99920.59
2022-08-28T13:00:25.759Z,99928.03
2022-08-28T13:02:56.312Z,99929.19
2022-08-28T13:05:31.315Z,99936.50
2022-08-28T13:08:04.726Z,99934.38
2022-08-28T13:10:38.245Z,99938.63
2022-08-28T13:13:11.140Z,99940.03
2022-08-28T13:15:52.537Z,99940.13
2022-08-28T13:18:59.542Z,99936.34
2022-08-28T13:21:35.530Z,99941.88
2022-08-28T13:24:28.907Z,99940.28
2022-08-28T13:27:07.792Z,99941.53
2022-08-28T13:29:37.487Z,99940.50
2022-08-28T13:32:08.904Z,99948.38
2022-08-28T13:34:47.607Z,99949.91
2022-08-28T13:37:41.902Z,99941.94
2022-08-28T13:40:30.272Z,99949.44
2022-08-28T13:43:07.214Z,99948.28
2022-08-28T13:45:42.326Z,99954.56
2022-08-28T13:48:13.489Z,99958.09
2022-08-28T13:50:46.747Z,99954.53
2022-08-28T13:53:17.470Z,99963.31
2022-08-28T13:55:49.758Z,99969.50
2022-08-28T13:58:18.308Z,99965.19
2022-08-28T14:00:50.354Z,99974.34
2022-08-28T14:03:36.793Z,99974.28
2022-08-28T14:06:07.471Z,99975.63
2022-08-28T14:08:36.239Z,99973.91
2022-08-28T14:11:07.476Z,99979.59
2022-08-28T14:13:36.970Z,99992.31
2022-08-28T14:16:08.120Z,99987.38
2022-08-28T14:18:37.331Z,99979.44
2022-08-28T14:21:07.851Z,99978.53
2022-08-28T14:23:36.241Z,99982.06
2022-08-28T14:26:07.876Z,99989.81
2022-08-28T14:28:36.431Z,99993.22
2022-08-28T14:31:11.081Z,99985.47
2022-08-28T14:33:45.443Z,99981.78
2022-08-28T14:36:17.541Z,99986.81
2022-08-28T14:38:46.095Z,99983.09
2022-08-28T14:41:17.761Z,99981.25
2022-08-28T14:43:46.571Z,99983.19
2022-08-28T14:46:19.811Z,99995.09
2022-08-28T14:48:48.419Z,99983.72
2022-08-28T14:51:19.372Z,99990.91
2022-08-28T14:53:48.252Z,99992.66
2022-08-28T14:56:18.300Z,99993.81
2022-08-28T14:58:46.772Z,99994.56
2022-08-28T15:01:23.935Z,100002.66
2022-08-28T15:03:53.396Z,100003.09
2022-08-28T15:06:21.853Z,99995.84
2022-08-28T15:08:50.257Z,99993.97
2022-08-28T15:11:22.316Z,100000.78
2022-08-28T15:13:52.601Z,99995.91
2022-08-28T15:16:24.699Z,99984.97
2022-08-28T15:18:57.486Z,99989.16
2022-08-28T15:21:28.973Z,99962.66
2022-08-28T15:23:58.248Z,99994.84
2022-08-28T15:26:28.996Z,99983.94
2022-08-28T15:29:02.493Z,99980.78
2022-08-28T15:31:31.631Z,99985.22
2022-08-28T15:34:03.963Z,99978.13
2022-08-28T15:36:36.640Z,99980.72
2022-08-28T15:39:23.913Z,99981.78
2022-08-28T15:41:54.254Z,99975.44
2022-08-28T15:44:22.677Z,99978.44
2022-08-28T15:46:54.316Z,99978.16
2022-08-28T15:49:23.997Z,99990.44
2022-08-28T15:51:53.157Z,99990.41
2022-08-28T15:54:22.929Z,99994.75
2022-08-28T15:56:53.885Z,99989.78
2022-08-28T15:59:24.869Z,100003.88
2022-08-28T16:02:12.890Z,100002.44
2022-08-28T16:04:41.343Z,100002.97
2022-08-28T16:07:09.726Z,100006.25
2022-08-28T16:09:38.241Z,100005.47
2022-08-28T16:12:07.011Z,100009.16
2022-08-28T16:14:36.857Z,100010.00
2022-08-28T16:17:05.815Z,100011.22
2022-08-28T16:19:39.324Z,100011.81
2022-08-28T16:22:07.743Z,100008.94
2022-08-28T16:24:36.269Z,100013.22
2022-08-28T16:27:06.485Z,100014.16
2022-08-28T16:29:39.934Z,100005.72
2022-08-28T16:32:08.474Z,100016.66
2022-08-28T16:34:37.075Z,100023.09
2022-08-28T16:37:05.958Z,100016.91
2022-08-28T16:39:37.131Z,100017.72
2022-08-28T16:42:05.929Z,100021.00
2022-08-28T16:44:35.105Z,100016.84
2022-08-28T16:47:05.641Z,100017.66
2022-08-28T16:49:34.183Z,100023.81
2022-08-28T16:52:02.571Z,100017.63
2022-08-28T16:54:30.944Z,100022.75
2022-08-28T16:56:59.404Z,100026.50
2022-08-28T16:59:27.775Z,100019.47
2022-08-28T17:01:56.623Z,100033.50
2022-08-28T17:04:27.207Z,100016.41
2022-08-28T17:06:56.109Z,100027.44
2022-08-28T17:09:25.523Z,100033.00
2022-08-28T17:11:53.893Z,100034.22
2022-08-28T17:14:22.677Z,100042.91
2022-08-28T17:16:52.204Z,100040.63
2022-08-28T17:19:23.429Z,100044.59
2022-08-28T17:22:10.783Z,100046.88
2022-08-28T17:24:40.173Z,100046.88
2022-08-28T17:27:08.979Z,100049.56
2022-08-28T17:29:38.967Z,100033.88
2022-08-28T17:32:08.198Z,100052.69
2022-08-28T17:34:37.367Z,100053.91
2022-08-28T17:37:07.251Z,100056.41
2022-08-28T17:39:36.237Z,100054.78
2022-08-28T17:42:05.181Z,100060.56
2022-08-28T17:44:33.566Z,100054.75
2022-08-28T17:47:02.044Z,100057.28
2022-08-28T17:49:30.542Z,100059.97
2022-08-28T17:51:59.171Z,100059.75
2022-08-28T17:54:29.073Z,100061.84
2022-08-28T17:56:58.348Z,100065.94
2022-08-28T17:59:27.990Z,100065.94
2022-08-28T18:01:56.558Z,100067.66
2022-08-28T18:04:25.051Z,100066.41
2022-08-28T18:06:54.942Z,100079.84
2022-08-28T18:09:25.249Z,100073.88
2022-08-28T18:11:55.519Z,100074.72
2022-08-28T18:14:24.116Z,100088.34
2022-08-28T18:16:52.657Z,100087.50
2022-08-28T18:19:21.379Z,100093.31
2022-08-28T18:21:49.778Z,100095.78
2022-08-28T18:24:18.196Z,100091.25
2022-08-28T18:26:47.576Z,100099.56
2022-08-28T18:29:17.567Z,100099.09
2022-08-28T18:31:46.028Z,100105.09
2022-08-28T18:34:14.763Z,100106.13
2022-08-28T18:36:43.129Z,100110.00
2022-08-28T18:39:12.151Z,100115.56
2022-08-28T18:41:43.167Z,100120.94
2022-08-28T18:44:14.464Z,100115.16
2022-08-28T18:46:45.274Z,100114.97
2022-08-28T18:49:14.368Z,100119.09
2022-08-28T18:51:44.276Z,100114.09
2022-08-28T18:54:13.640Z,100100.28
2022-08-28T18:56:45.410Z,100118.25
2022-08-28T18:59:13.828Z,100119.31
2022-08-28T19:01:43.963Z,100112.28
2022-08-28T19:04:12.615Z,100123.44
2022-08-28T19:06:42.685Z,100121.78
2022-08-28T19:09:20.625Z,100129.63
2022-08-28T19:11:49.464Z,100143.50
2022-08-28T19:14:18.013Z,100135.00
2022-08-28T19:16:48.083Z,100136.47
2022-08-28T19:19:16.881Z,100141.22
2022-08-28T19:21:46.438Z,100149.06
2022-08-28T19:24:17.881Z,100146.00
2022-08-28T19:26:46.799Z,100143.31
2022-08-28T19:29:15.242Z,100148.69
2022-08-28T19:31:44.312Z,100138.75
2022-08-28T19:34:14.534Z,100147.84
2022-08-28T19:36:43.124Z,100140.00
2022-08-28T19:39:11.626Z,100145.00
2022-08-28T19:41:40.236Z,100156.16
2022-08-28T19:44:09.320Z,100145.84
2022-08-28T19:46:38.375Z,100156.16
2022-08-28T19:49:07.917Z,100148.53
2022-08-28T19:51:39.276Z,100159.69
2022-08-28T19:54:11.341Z,100155.16
2022-08-28T19:56:40.153Z,100166.72
2022-08-28T19:59:09.145Z,100159.06
2022-08-28T20:01:39.569Z,100162.59
2022-08-28T20:04:09.482Z,100158.22
2022-08-28T20:06:39.442Z,100157.41
2022-08-28T20:09:12.534Z,100166.91
2022-08-28T20:11:42.384Z,100166.91
2022-08-28T20:14:10.793Z,100159.28
2022-08-28T20:16:42.133Z,100166.91
2022-08-28T20:19:12.410Z,100160.91
2022-08-28T20:21:45.452Z,100169.81
2022-08-28T20:24:17.736Z,100165.88
2022-08-28T20:26:46.115Z,100169.41
2022-08-28T20:29:15.195Z,100181.81
2022-08-28T20:31:47.462Z,100178.53
2022-08-28T20:34:18.411Z,100192.16
2022-08-28T20:36:48.589Z,100179.13
2022-08-28T20:39:18.200Z,100177.25
2022-08-28T20:41:48.368Z,100184.72
2022-08-28T20:44:20.667Z,100193.16
2022-08-28T20:46:54.903Z,100191.53
2022-08-28T20:49:24.586Z,100197.97
2022-08-28T20:52:06.056Z,100196.31
2022-08-28T20:54:41.564Z,100197.13
2022-08-28T20:57:16.448Z,100189.22
2022-08-28T20:59:49.066Z,100194.22
2022-08-28T21:02:21.777Z,100204.56
2022-08-28T21:04:57.224Z,100199.78
2022-08-28T21:07:29.632Z,100207.03
2022-08-28T21:10:07.226Z,100203.09
2022-08-28T21:12:38.905Z,100203.31
2022-08-28T21:15:12.375Z,100201.47
2022-08-28T21:17:43.035Z,100207.44
2022-08-28T21:20:16.297Z,100197.91
2022-08-28T21:22:49.047Z,100207.41
2022-08-28T21:25:23.299Z,100204.53
2022-08-28T21:27:55.865Z,100211.13
2022-08-28T21:33:25.107Z,100216.09
2022-08-28T21:35:59.514Z,100212.16
2022-08-28T21:38:32.617Z,100221.47
2022-08-28T21:41:04.868Z,100209.66
2022-08-28T21:43:36.896Z,100218.13
2022-08-28T21:46:08.671Z,100215.84
2022-08-28T21:48:42.293Z,100211.94
2022-08-28T21:51:14.654Z,100226.78
2022-08-28T21:53:49.193Z,100233.81
2022-08-28T21:56:21.706Z,100241.25
2022-08-28T21:58:58.367Z,100245.38
2022-08-28T22:01:29.510Z,100243.91
2022-08-28T22:04:03.261Z,100246.00
2022-08-28T22:06:33.481Z,100247.81
2022-08-28T22:09:11.222Z,100255.88
2022-08-28T22:11:45.910Z,100245.09
2022-08-28T22:14:16.592Z,100246.81
2022-08-28T22:16:50.678Z,100247.66
2022-08-28T22:19:21.195Z,100249.47
2022-08-28T22:22:13.422Z,100254.66
2022-08-28T22:24:44.689Z,100247.56
2022-08-28T22:27:17.274Z,100242.56
2022-08-28T22:29:50.021Z,100258.13
2022-08-28T22:32:28.685Z,100263.28
2022-08-28T22:34:59.050Z,100251.94
2022-08-28T22:37:33.613Z,100254.84
2022-08-28T22:40:13.203Z,100254.44
2022-08-28T22:42:49.157Z,100260.22
2022-08-28T22:45:19.706Z,100266.41
2022-08-28T22:50:46.496Z,100256.06
2022-08-28T22:53:23.045Z,100263.75
2022-08-28T22:58:49.430Z,100266.88
2022-08-28T23:01:27.937Z,100265.41
2022-08-28T23:03:58.629Z,100253.19
2022-08-28T23:06:30.248Z,100256.28
2022-08-28T23:09:00.702Z,100269.47
2022-08-28T23:11:34.598Z,100267.59
2022-08-28T23:14:04.963Z,100275.25
2022-08-28T23:16:39.883Z,100271.72
2022-08-28T23:19:13.148Z,100277.09
2022-08-28T23:21:45.655Z,100276.25
2022-08-28T23:24:19.317Z,100273.91
2022-08-28T23:26:50.979Z,100274.31
2022-08-28T23:29:23.360Z,100269.09
2022-08-28T23:31:53.805Z,100278.19
2022-08-28T23:34:28.197Z,100280.31
2022-08-28T23:36:58.939Z,100286.88
2022-08-28T23:39:34.186Z,100283.31
2022-08-28T23:42:10.190Z,100282.69
2022-08-28T23:44:46.194Z,100280.41
2022-08-28T23:47:22.242Z,100284.06
2022-08-28T23:49:52.275Z,100285.09
2022-08-28T23:52:25.097Z,100278.50
2022-08-28T23:54:59.670Z,100287.59
2022-08-28T23:57:32.281Z,100291.88
